Los Angeles, California
Traffic Map
Current Weather Conditions
Los Angeles, California
Few Clouds
Few Clouds
76°
Feels Like: 76°
Wind Chill: 76° Ceiling: Unl
Heat Index: 76° Visibility: 10mi
Dew Point: 62° Wind: 0mph
Humidity: 62% Direction: ° ()
Pressure: 29.92in Gusts: 0mph
Raw Report DataKCQT 231747Z AUTO 00000KT 10SM FEW022 24/17 A2992 RMK AO2 SLP129 T02440167 10244 20183 51007
Traffic Incident Summary
Active as of:
Severity:
Category:
InformationThere was an issue retrieving the traffic information for this location. Please try a different location or try again shortly.
Advertisements